Time;durP1;ratioP1;P1;durP2;ratioP2;P2;SDS_P1;SDS_P2;PMS_P1;PMS_P2;Temp;Humidity;BMP_temperature;BMP_pressure;BME280_temperature;BME280_humidity;BME280_pressure;Samples;Min_cycle;Max_cycle;Signal;HPM_P1;HPM_P2
2023/07/03 00:01:44;;;;;;;10.07;3.03;;;16.00;99.90;;;;;;5071604;28;20091;-82
2023/07/03 00:04:10;;;;;;;12.68;3.72;;;16.00;99.90;;;;;;5068670;28;20052;-82
2023/07/03 00:06:37;;;;;;;9.20;2.55;;;16.00;99.90;;;;;;5070611;28;20049;-81
2023/07/03 00:09:03;;;;;;;8.30;2.38;;;16.00;99.90;;;;;;5070210;28;20040;-82
2023/07/03 00:11:29;;;;;;;11.35;3.72;;;16.00;99.90;;;;;;5053934;28;20068;-83
2023/07/03 00:13:55;;;;;;;7.95;2.75;;;16.00;99.90;;;;;;5070946;28;20045;-81
2023/07/03 00:16:20;;;;;;;7.70;2.80;;;16.00;99.90;;;;;;5053409;28;20044;-82
2023/07/03 00:18:48;;;;;;;7.97;2.15;;;16.00;99.90;;;;;;5070057;28;20067;-83
2023/07/03 00:21:13;;;;;;;10.13;3.05;;;16.00;99.90;;;;;;5070366;28;20040;-82
2023/07/03 00:23:39;;;;;;;9.27;2.38;;;16.00;99.90;;;;;;5070127;28;20040;-82
2023/07/03 00:26:05;;;;;;;11.85;2.70;;;16.00;99.90;;;;;;5067890;28;20050;-81
2023/07/03 00:28:31;;;;;;;9.35;3.55;;;16.00;99.90;;;;;;5053421;28;20048;-83
2023/07/03 00:30:56;;;;;;;13.38;2.92;;;16.00;99.90;;;;;;5034977;28;20372;-82
2023/07/03 00:33:22;;;;;;;7.90;2.20;;;16.00;99.90;;;;;;5071008;28;20041;-81
2023/07/03 00:35:48;;;;;;;11.05;2.53;;;16.00;99.90;;;;;;5069345;28;20500;-83
2023/07/03 00:38:13;;;;;;;12.02;2.80;;;16.00;99.90;;;;;;5067924;28;20056;-83
2023/07/03 00:40:39;;;;;;;9.77;2.65;;;16.00;99.90;;;;;;5069974;28;20177;-83
2023/07/03 00:43:05;;;;;;;7.70;2.42;;;16.00;99.90;;;;;;5067548;28;20037;-82
2023/07/03 00:45:33;;;;;;;10.18;2.08;;;16.00;99.90;;;;;;5070055;28;20449;-83
2023/07/03 00:47:58;;;;;;;15.55;2.83;;;16.00;99.90;;;;;;5051286;28;20078;-82
2023/07/03 00:50:25;;;;;;;7.45;2.80;;;16.00;99.90;;;;;;5052262;28;20384;-81
2023/07/03 00:52:58;;;;;;;13.55;3.22;;;16.00;99.90;;;;;;5052001;28;20076;-81
2023/07/03 00:55:24;;;;;;;12.77;2.92;;;15.90;99.90;;;;;;5067671;28;20055;-80
2023/07/03 00:57:51;;;;;;;6.70;3.15;;;15.90;99.90;;;;;;5036382;28;20040;-81
2023/07/03 01:00:17;;;;;;;19.48;3.38;;;15.80;99.90;;;;;;5050415;28;20048;-82
2023/07/03 01:03:10;;;;;;;11.38;3.78;;;15.70;99.90;;;;;;5052500;28;20048;-81
2023/07/03 01:05:44;;;;;;;12.65;2.88;;;15.70;99.90;;;;;;5060496;28;20052;-82
2023/07/03 01:08:11;;;;;;;11.65;2.65;;;15.70;99.90;;;;;;5069386;28;20047;-82
2023/07/03 01:10:38;;;;;;;9.43;3.17;;;15.70;99.90;;;;;;5070571;28;20041;-81
2023/07/03 01:13:10;;;;;;;11.32;2.67;;;15.70;99.90;;;;;;5068705;28;20459;-82
2023/07/03 01:15:40;;;;;;;10.50;2.93;;;15.60;99.90;;;;;;5052354;28;20052;-82
2023/07/03 01:18:07;;;;;;;11.30;2.40;;;15.60;99.90;;;;;;5069993;28;20041;-80
2023/07/03 01:20:40;;;;;;;17.20;3.70;;;15.60;99.90;;;;;;5080705;28;20557;-82
2023/07/03 01:23:18;;;;;;;8.05;2.10;;;15.60;99.90;;;;;;5064789;28;20048;-82
2023/07/03 01:25:45;;;;;;;9.63;2.22;;;15.60;99.90;;;;;;5067437;28;20047;-82
2023/07/03 01:28:14;;;;;;;8.88;2.58;;;15.60;99.90;;;;;;5069338;28;20051;-83
2023/07/03 01:30:42;;;;;;;14.90;4.00;;;15.60;99.90;;;;;;5066883;28;20480;-82
2023/07/03 01:33:17;;;;;;;13.60;2.47;;;15.60;99.90;;;;;;5052188;28;20297;-82
2023/07/03 01:35:46;;;;;;;11.93;2.97;;;15.60;99.90;;;;;;5068138;28;20048;-82
2023/07/03 01:38:13;;;;;;;11.65;2.20;;;15.60;99.90;;;;;;5067157;28;20428;-82
2023/07/03 01:40:40;;;;;;;10.30;2.22;;;15.60;99.90;;;;;;5052159;28;20047;-82
2023/07/03 01:43:06;;;;;;;14.52;3.85;;;15.60;99.90;;;;;;5049798;28;20053;-83
2023/07/03 01:45:47;;;;;;;8.75;2.33;;;15.60;99.90;;;;;;5068216;28;20101;-82
2023/07/03 01:48:14;;;;;;;8.27;2.10;;;15.60;99.90;;;;;;5067515;28;20518;-81
2023/07/03 01:50:41;;;;;;;10.80;2.15;;;15.60;99.90;;;;;;5050355;28;20048;-81
2023/07/03 01:53:31;;;;;;;17.52;2.83;;;15.60;99.90;;;;;;5068571;28;20052;-83
2023/07/03 01:56:11;;;;;;;10.05;2.05;;;15.70;99.90;;;;;;5066177;28;20060;-83
2023/07/03 01:58:46;;;;;;;9.43;2.72;;;15.70;99.90;;;;;;5051694;28;20037;-83
2023/07/03 02:01:49;;;;;;;5.65;1.70;;;15.70;99.90;;;;;;5051370;28;20502;-82
2023/07/03 02:04:43;;;;;;;6.45;2.03;;;15.60;99.90;;;;;;5019114;28;20054;-81
2023/07/03 02:07:11;;;;;;;12.77;2.80;;;15.60;99.90;;;;;;5058173;28;20051;-82
2023/07/03 02:09:39;;;;;;;11.30;2.00;;;15.50;99.90;;;;;;5067443;28;20040;-81
2023/07/03 02:12:06;;;;;;;10.07;1.63;;;15.50;99.90;;;;;;5066378;28;20091;-81
2023/07/03 02:14:34;;;;;;;8.10;1.90;;;15.40;99.90;;;;;;5068203;28;20244;-83
2023/07/03 02:17:01;;;;;;;11.65;2.40;;;15.40;99.90;;;;;;5065216;28;20052;-81
2023/07/03 02:19:31;;;;;;;9.75;2.10;;;15.40;99.90;;;;;;5067899;28;20495;-81
2023/07/03 02:21:57;;;;;;;10.98;1.88;;;15.30;99.90;;;;;;5033748;28;20531;-82
2023/07/03 02:24:24;;;;;;;8.50;1.75;;;15.20;99.90;;;;;;5067925;28;20123;-83
2023/07/03 02:26:50;;;;;;;9.20;2.38;;;15.20;99.90;;;;;;5068835;28;20503;-82
2023/07/03 02:29:16;;;;;;;13.95;1.75;;;15.20;99.90;;;;;;5067780;28;20052;-82
2023/07/03 02:31:42;;;;;;;4.95;1.60;;;15.20;99.90;;;;;;5067697;28;20049;-82
2023/07/03 02:34:08;;;;;;;8.80;1.65;;;15.10;99.90;;;;;;5048796;28;20052;-82
2023/07/03 02:36:35;;;;;;;9.68;1.92;;;15.10;99.90;;;;;;5067691;28;20049;-82
2023/07/03 02:39:01;;;;;;;7.25;1.88;;;17.00;99.90;;;;;;5067318;28;20121;-82
2023/07/03 02:41:28;;;;;;;7.07;1.23;;;15.10;99.90;;;;;;5067698;28;20106;-82
2023/07/03 02:43:53;;;;;;;6.78;1.35;;;15.10;99.90;;;;;;5050444;28;20530;-82
2023/07/03 02:46:19;;;;;;;6.47;1.85;;;15.00;99.90;;;;;;5050243;28;20056;-82
2023/07/03 02:48:45;;;;;;;9.77;1.40;;;15.00;99.90;;;;;;5076438;28;20495;-81
2023/07/03 02:51:11;;;;;;;9.88;1.73;;;14.90;99.90;;;;;;5082823;28;20052;-79
2023/07/03 02:53:37;;;;;;;5.88;1.50;;;14.90;99.90;;;;;;5073637;28;20080;-81
2023/07/03 02:56:03;;;;;;;10.77;1.70;;;14.90;99.90;;;;;;5067295;28;20044;-83
2023/07/03 02:58:29;;;;;;;5.60;1.10;;;14.90;99.90;;;;;;5050955;28;20438;-83
2023/07/03 03:00:55;;;;;;;5.25;0.80;;;14.80;99.90;;;;;;5068454;28;20048;-82
2023/07/03 03:03:20;;;;;;;6.80;1.70;;;14.80;99.90;;;;;;5066031;28;20037;-82
2023/07/03 03:05:46;;;;;;;8.68;1.77;;;14.80;99.90;;;;;;5067592;28;20523;-82
2023/07/03 03:08:12;;;;;;;9.75;1.67;;;14.70;99.90;;;;;;5049032;28;20041;-82
2023/07/03 03:10:38;;;;;;;16.17;2.70;;;14.70;99.90;;;;;;5067536;28;20051;-82
2023/07/03 03:13:04;;;;;;;8.13;1.17;;;14.70;99.90;;;;;;5032080;28;20041;-83
2023/07/03 03:15:34;;;;;;;6.20;1.10;;;14.70;99.90;;;;;;5067994;28;20587;-82
2023/07/03 03:18:00;;;;;;;10.10;2.25;;;14.70;99.90;;;;;;5066761;28;20041;-83
2023/07/03 03:20:26;;;;;;;10.05;1.65;;;14.60;99.90;;;;;;5067482;28;20072;-82
2023/07/03 03:22:51;;;;;;;6.05;1.35;;;14.60;99.90;;;;;;5067562;28;20083;-82
2023/07/03 03:25:17;;;;;;;4.57;1.58;;;14.60;99.90;;;;;;5066364;28;20051;-83
2023/07/03 03:27:43;;;;;;;5.45;1.17;;;14.60;99.90;;;;;;5068819;28;20044;-83
2023/07/03 03:30:09;;;;;;;4.30;1.00;;;14.60;99.90;;;;;;5052905;28;20048;-83
2023/07/03 03:32:35;;;;;;;11.43;2.30;;;14.50;99.90;;;;;;5071283;28;20437;-82
2023/07/03 03:35:00;;;;;;;2.95;1.23;;;14.50;99.90;;;;;;5037072;28;20131;-82
2023/07/03 03:37:26;;;;;;;6.68;1.38;;;14.50;99.90;;;;;;5053596;28;20044;-83
2023/07/03 03:39:52;;;;;;;8.60;1.30;;;14.50;99.90;;;;;;5053847;28;20114;-82
2023/07/03 03:42:18;;;;;;;7.18;1.15;;;14.50;99.90;;;;;;5068901;28;20131;-82
2023/07/03 03:44:44;;;;;;;8.10;2.92;;;14.40;99.90;;;;;;5054373;28;20426;-82
2023/07/03 03:47:10;;;;;;;9.05;1.83;;;14.40;99.90;;;;;;5052513;28;20043;-81
2023/07/03 03:49:36;;;;;;;9.05;1.02;;;14.40;99.90;;;;;;5053962;28;20403;-82
2023/07/03 03:52:02;;;;;;;11.10;3.88;;;14.00;99.90;;;;;;5036945;28;20049;-82
2023/07/03 03:54:28;;;;;;;4.88;1.40;;;14.50;99.90;;;;;;5070171;28;20142;-83
2023/07/03 03:56:54;;;;;;;5.35;1.33;;;14.50;99.90;;;;;;5054048;28;20521;-82
2023/07/03 03:59:21;;;;;;;13.85;1.95;;;14.50;99.90;;;;;;5052208;28;20040;-82
2023/07/03 04:01:50;;;;;;;10.63;1.42;;;14.50;99.90;;;;;;5038118;28;20041;-83
2023/07/03 04:04:16;;;;;;;5.28;1.25;;;14.50;99.90;;;;;;5035316;28;20056;-82
2023/07/03 04:06:43;;;;;;;3.60;1.48;;;14.50;99.90;;;;;;5070383;28;20467;-83
2023/07/03 04:09:09;;;;;;;11.50;2.03;;;14.50;99.90;;;;;;5069467;28;20041;-81
2023/07/03 04:11:35;;;;;;;9.60;1.67;;;14.60;99.90;;;;;;5069327;28;20056;-82
2023/07/03 04:14:02;;;;;;;7.32;1.58;;;14.60;99.90;;;;;;5037881;28;20580;-82
2023/07/03 04:16:31;;;;;;;7.28;2.25;;;14.60;99.90;;;;;;5053528;28;20078;-81
2023/07/03 04:18:57;;;;;;;11.65;1.88;;;14.60;99.90;;;;;;5086494;28;20036;-80
2023/07/03 04:21:23;;;;;;;11.20;1.83;;;14.60;99.90;;;;;;5061768;28;20055;-82
2023/07/03 04:23:49;;;;;;;12.27;1.40;;;14.60;99.90;;;;;;5053958;28;20086;-83
2023/07/03 04:26:15;;;;;;;10.40;1.85;;;14.60;99.90;;;;;;5036738;28;20048;-82
2023/07/03 04:28:41;;;;;;;8.60;1.17;;;14.70;99.90;;;;;;5052241;28;20097;-82
2023/07/03 04:31:07;;;;;;;6.55;0.98;;;13.10;99.90;;;;;;5036969;28;20048;-83
2023/07/03 04:33:33;;;;;;;13.75;1.95;;;14.70;99.90;;;;;;5067781;28;20048;-81
2023/07/03 04:35:59;;;;;;;5.50;1.27;;;14.80;99.90;;;;;;5070046;28;20079;-81
2023/07/03 04:38:25;;;;;;;8.68;1.17;;;14.80;99.90;;;;;;5034427;28;20072;-83
2023/07/03 04:40:53;;;;;;;5.72;1.27;;;14.90;99.90;;;;;;5069085;28;20127;-83
2023/07/03 04:43:19;;;;;;;9.80;1.67;;;15.00;99.90;;;;;;5052612;28;20646;-83
2023/07/03 04:45:51;;;;;;;11.23;1.70;;;15.00;99.90;;;;;;5068760;28;20055;-81
2023/07/03 04:48:17;;;;;;;5.82;1.13;;;15.10;99.90;;;;;;5069868;28;20044;-82
2023/07/03 04:50:46;;;;;;;4.60;1.35;;;15.10;99.90;;;;;;5067455;28;20105;-82
2023/07/03 04:53:12;;;;;;;10.27;1.42;;;15.10;99.90;;;;;;5053129;28;20152;-83
2023/07/03 04:55:38;;;;;;;10.48;2.13;;;15.10;99.90;;;;;;5050966;28;20040;-82
2023/07/03 04:58:05;;;;;;;8.40;1.13;;;15.10;99.90;;;;;;5053311;28;20032;-81
2023/07/03 05:00:31;;;;;;;11.38;1.42;;;15.10;99.90;;;;;;5052249;28;20041;-82
2023/07/03 05:03:02;;;;;;;9.05;0.98;;;15.20;99.90;;;;;;5067963;28;20047;-83
2023/07/03 05:05:28;;;;;;;6.93;1.00;;;15.20;99.90;;;;;;5069345;28;20267;-82
2023/07/03 05:07:53;;;;;;;7.25;1.30;;;15.20;99.90;;;;;;5067011;28;20041;-81
2023/07/03 05:10:21;;;;;;;3.42;0.93;;;15.30;99.90;;;;;;5069424;28;20051;-82
2023/07/03 05:12:47;;;;;;;4.93;1.00;;;15.40;99.90;;;;;;5067136;28;20076;-81
2023/07/03 05:15:15;;;;;;;7.85;1.30;;;15.40;99.90;;;;;;5069097;28;20148;-81
2023/07/03 05:17:41;;;;;;;20.00;4.20;;;15.50;99.90;;;;;;5068463;28;20084;-81
2023/07/03 05:20:15;;;;;;;9.13;1.20;;;15.60;99.90;;;;;;5051072;28;20101;-82
2023/07/03 05:22:42;;;;;;;15.88;3.58;;;15.70;99.90;;;;;;5036049;28;20055;-82
2023/07/03 05:25:10;;;;;;;15.38;5.38;;;15.80;99.90;;;;;;5050500;28;20616;-83
2023/07/03 05:27:36;;;;;;;5.20;1.27;;;15.90;99.90;;;;;;5052716;28;20554;-83
2023/07/03 05:30:04;;;;;;;9.02;1.20;;;16.10;99.90;;;;;;5051069;28;20539;-85
2023/07/03 05:32:29;;;;;;;5.72;1.90;;;16.20;99.90;;;;;;5068612;28;20040;-84
2023/07/03 05:34:55;;;;;;;5.93;1.08;;;16.30;99.90;;;;;;5052465;28;20470;-84
2023/07/03 05:37:21;;;;;;;7.90;1.25;;;16.30;99.90;;;;;;5034016;28;20069;-84
2023/07/03 05:39:49;;;;;;;6.78;0.90;;;16.40;99.90;;;;;;5052623;28;20042;-88
2023/07/03 05:42:16;;;;;;;9.50;1.63;;;16.50;99.90;;;;;;5039108;28;20131;-88
2023/07/03 05:44:43;;;;;;;11.32;1.23;;;16.50;99.90;;;;;;5061397;28;20075;-88
2023/07/03 05:47:09;;;;;;;6.43;0.90;;;16.50;99.90;;;;;;5067254;28;20055;-82
2023/07/03 05:49:35;;;;;;;7.32;1.20;;;16.50;99.90;;;;;;5084668;28;20063;-85
2023/07/03 05:52:01;;;;;;;8.88;0.95;;;16.50;99.90;;;;;;5070428;28;20048;-85
2023/07/03 05:54:26;;;;;;;7.40;1.38;;;16.50;99.90;;;;;;5068251;28;20547;-84
2023/07/03 05:57:19;;;;;;;4.80;1.00;;;16.40;99.90;;;;;;5069488;28;20044;-85
2023/07/03 05:59:45;;;;;;;4.90;2.00;;;16.40;99.90;;;;;;5047225;28;20415;-86
2023/07/03 06:02:13;;;;;;;8.40;1.13;;;16.40;99.90;;;;;;5052626;28;20045;-86
2023/07/03 06:04:39;;;;;;;16.88;1.77;;;16.40;99.90;;;;;;5051340;28;20056;-85
2023/07/03 06:07:06;;;;;;;7.18;1.23;;;16.30;99.90;;;;;;5067236;28;20048;-85
2023/07/03 06:09:33;;;;;;;5.00;0.90;;;16.30;99.90;;;;;;5052780;28;20402;-87
2023/07/03 06:11:59;;;;;;;4.03;1.00;;;16.30;99.90;;;;;;5049906;28;20052;-84
2023/07/03 06:14:25;;;;;;;8.38;0.77;;;16.40;99.90;;;;;;5052244;28;20036;-83
2023/07/03 06:16:52;;;;;;;8.48;1.23;;;16.50;99.90;;;;;;5049661;28;20045;-83
2023/07/03 06:19:19;;;;;;;4.20;1.10;;;16.60;99.90;;;;;;5068257;28;20044;-84
2023/07/03 06:21:46;;;;;;;12.05;2.10;;;16.70;99.90;;;;;;5068005;28;20044;-84
2023/07/03 06:24:13;;;;;;;7.15;1.70;;;16.80;99.90;;;;;;5067421;28;20040;-84
2023/07/03 06:26:39;;;;;;;9.02;1.83;;;16.90;99.90;;;;;;5051926;28;20079;-84
2023/07/03 06:29:06;;;;;;;5.85;1.25;;;17.00;99.90;;;;;;5033454;28;20078;-84
2023/07/03 06:31:32;;;;;;;9.23;1.77;;;17.10;99.90;;;;;;5051990;28;20166;-83
2023/07/03 06:33:58;;;;;;;7.88;1.88;;;17.30;99.90;;;;;;5050956;28;20123;-82
2023/07/03 06:36:25;;;;;;;5.07;1.33;;;17.50;99.90;;;;;;5083001;28;20108;-83
2023/07/03 06:39:02;;;;;;;6.85;1.10;;;17.70;99.90;;;;;;5071866;28;20037;-84
2023/07/03 06:41:30;;;;;;;4.47;0.88;;;17.90;99.90;;;;;;5068162;28;20131;-83
2023/07/03 06:43:57;;;;;;;8.52;2.08;;;18.00;99.90;;;;;;5068366;28;20496;-85
2023/07/03 06:46:24;;;;;;;7.63;1.02;;;18.10;99.90;;;;;;5066854;28;20059;-86
2023/07/03 06:48:50;;;;;;;6.70;0.88;;;18.10;99.90;;;;;;5052460;28;20414;-87
2023/07/03 06:51:15;;;;;;;3.67;0.80;;;18.00;99.90;;;;;;5049803;28;20044;-87
2023/07/03 06:53:41;;;;;;;11.10;1.42;;;17.90;99.90;;;;;;5051461;28;20056;-83
2023/07/03 06:56:08;;;;;;;3.30;0.80;;;17.70;99.90;;;;;;5034556;28;20044;-84
2023/07/03 06:58:34;;;;;;;4.25;1.10;;;17.40;99.90;;;;;;5067535;28;20475;-85
2023/07/03 07:01:13;;;;;;;6.57;0.95;;;17.10;99.90;;;;;;5068508;28;20403;-85
2023/07/03 07:03:39;;;;;;;5.43;1.27;;;16.90;99.90;;;;;;5068632;28;20056;-83
2023/07/03 07:06:30;;;;;;;9.02;2.03;;;16.80;99.90;;;;;;5055229;28;20079;-83
2023/07/03 07:08:56;;;;;;;5.88;1.65;;;16.70;99.90;;;;;;5071664;28;20075;-83
2023/07/03 07:11:25;;;;;;;7.07;1.20;;;16.50;99.90;;;;;;5069819;28;20044;-83
2023/07/03 07:13:52;;;;;;;7.10;1.60;;;16.50;99.90;;;;;;5055243;28;20066;-83
2023/07/03 07:16:23;;;;;;;4.05;1.05;;;16.50;99.90;;;;;;5036349;28;20044;-83
2023/07/03 07:18:55;;;;;;;3.20;0.63;;;16.40;99.90;;;;;;5073337;28;20055;-83
2023/07/03 07:21:22;;;;;;;6.10;1.08;;;16.40;99.90;;;;;;5077717;28;20306;-78
2023/07/03 07:23:56;;;;;;;8.68;1.33;;;16.30;99.90;;;;;;5081575;28;20052;-84
2023/07/03 07:26:24;;;;;;;12.32;2.88;;;16.40;99.90;;;;;;5076393;28;20044;-84
2023/07/03 07:28:50;;;;;;;7.20;1.00;;;16.60;99.90;;;;;;5070294;28;20036;-83
2023/07/03 07:31:20;;;;;;;6.28;0.85;;;16.90;99.90;;;;;;5054568;28;20388;-81
2023/07/03 07:33:46;;;;;;;4.28;0.93;;;17.00;99.90;;;;;;5069139;28;20052;-81
2023/07/03 07:36:14;;;;;;;5.82;1.23;;;17.10;99.90;;;;;;5071347;28;20099;-81
2023/07/03 07:38:40;;;;;;;3.17;1.17;;;17.10;99.90;;;;;;5069693;28;20052;-82
2023/07/03 07:41:06;;;;;;;2.33;0.60;;;17.10;99.90;;;;;;5053235;28;20064;-82
2023/07/03 07:43:31;;;;;;;8.05;1.05;;;17.00;99.90;;;;;;5038472;28;20059;-80
2023/07/03 07:45:57;;;;;;;4.53;1.30;;;17.10;99.90;;;;;;5071470;28;20131;-80
2023/07/03 07:48:23;;;;;;;8.77;1.02;;;17.20;99.90;;;;;;5071313;28;20045;-82
2023/07/03 07:50:50;;;;;;;10.65;1.10;;;17.30;99.90;;;;;;5052323;28;20045;-82
2023/07/03 07:53:15;;;;;;;6.78;0.82;;;17.40;99.90;;;;;;5071138;28;20099;-82
2023/07/03 07:55:41;;;;;;;6.10;0.98;;;17.50;99.90;;;;;;5069506;28;20040;-82
2023/07/03 07:58:07;;;;;;;5.80;1.20;;;17.60;99.90;;;;;;5053389;28;20070;-82
2023/07/03 08:00:33;;;;;;;5.28;1.17;;;17.70;99.90;;;;;;5037967;28;20048;-81
2023/07/03 08:02:58;;;;;;;5.97;1.10;;;17.90;99.90;;;;;;5068592;28;20040;-82
2023/07/03 08:05:24;;;;;;;7.85;0.93;;;17.90;99.90;;;;;;5070485;28;20083;-81
2023/07/03 08:07:49;;;;;;;6.03;0.93;;;18.10;99.90;;;;;;5035218;28;20407;-81
2023/07/03 08:10:15;;;;;;;4.03;0.73;;;18.20;99.90;;;;;;5072106;28;20127;-83
2023/07/03 08:12:41;;;;;;;5.93;0.75;;;18.20;99.90;;;;;;5068979;28;20041;-82
2023/07/03 08:15:08;;;;;;;5.93;1.00;;;18.20;99.90;;;;;;5070249;28;20097;-83
2023/07/03 08:17:34;;;;;;;2.35;0.80;;;18.30;99.90;;;;;;5053895;28;20040;-82
2023/07/03 08:20:00;;;;;;;4.32;0.60;;;18.60;99.90;;;;;;5068847;28;20049;-83
2023/07/03 08:22:27;;;;;;;4.57;1.23;;;18.80;99.90;;;;;;5070341;28;20049;-81
2023/07/03 08:24:53;;;;;;;6.57;0.68;;;18.90;99.90;;;;;;5068363;28;20044;-82
2023/07/03 08:27:18;;;;;;;3.42;0.55;;;18.90;99.90;;;;;;5070739;28;20040;-83
2023/07/03 08:29:46;;;;;;;3.17;0.45;;;18.80;99.90;;;;;;5068463;28;20085;-81
2023/07/03 08:32:13;;;;;;;5.05;0.63;;;18.80;99.90;;;;;;5069954;28;20127;-81
2023/07/03 08:34:39;;;;;;;4.80;0.93;;;18.80;99.90;;;;;;5053898;28;20102;-82
2023/07/03 08:37:05;;;;;;;5.55;0.40;;;18.90;99.90;;;;;;5051508;28;20455;-81
2023/07/03 08:39:31;;;;;;;10.32;0.70;;;18.90;99.90;;;;;;5053442;28;20043;-82
2023/07/03 08:42:07;;;;;;;5.00;0.90;;;19.10;99.90;;;;;;5067645;28;20045;-82
2023/07/03 08:44:33;;;;;;;3.67;0.55;;;19.20;99.90;;;;;;5053885;28;20048;-82
2023/07/03 08:47:03;;;;;;;8.50;0.68;;;19.30;99.90;;;;;;5073497;28;20044;-81
2023/07/03 08:49:31;;;;;;;2.95;0.60;;;19.40;99.90;;;;;;5075653;28;20044;-79
2023/07/03 08:51:59;;;;;;;9.70;0.95;;;19.60;99.90;;;;;;5073499;28;20391;-84
2023/07/03 08:54:32;;;;;;;7.28;1.15;;;19.80;99.90;;;;;;5070348;28;20055;-84
2023/07/03 08:56:59;;;;;;;7.30;2.40;;;20.00;99.90;;;;;;5075659;28;20037;-79
2023/07/03 08:59:25;;;;;;;2.10;0.77;;;20.10;99.90;;;;;;5073766;28;20044;-80
2023/07/03 09:02:18;;;;;;;3.50;0.52;;;20.20;99.80;;;;;;5053951;28;20051;-90
2023/07/03 09:04:53;;;;;;;;;;;20.20;98.00;;;;;;5070508;28;20495;-84
2023/07/03 09:07:43;;;;;;;3.25;0.55;;;20.00;96.60;;;;;;5049814;28;19921;-84
2023/07/03 09:10:24;;;;;;;2.50;0.40;;;19.90;98.10;;;;;;5072308;28;20049;-87
2023/07/03 09:13:04;;;;;;;3.95;0.70;;;19.60;96.80;;;;;;5054331;28;20487;-88
2023/07/03 09:15:48;;;;;;;6.57;0.50;;;19.20;97.40;;;;;;5055501;28;20041;-91
2023/07/03 09:18:18;;;;;;;3.70;0.47;;;18.90;98.20;;;;;;5056144;28;20079;-88
2023/07/03 09:20:45;;;;;;;3.35;0.73;;;18.70;98.60;;;;;;5051389;28;20082;-88
2023/07/03 09:23:21;;;;;;;2.22;0.55;;;18.70;99.00;;;;;;5053809;28;20040;-89
2023/07/03 09:25:53;;;;;;;2.38;0.60;;;18.70;98.50;;;;;;5054445;28;20055;-87
2023/07/03 09:28:19;;;;;;;3.50;0.70;;;18.80;99.10;;;;;;5069493;28;20388;-88
2023/07/03 09:30:45;;;;;;;2.67;0.90;;;18.90;99.40;;;;;;5071185;28;20055;-87
2023/07/03 09:33:10;;;;;;;3.30;0.55;;;18.90;99.30;;;;;;5035000;28;20509;-83
2023/07/03 09:35:41;;;;;;;3.20;0.68;;;18.90;99.40;;;;;;5070937;28;20041;-86
2023/07/03 09:38:14;;;;;;;9.23;1.27;;;18.80;99.50;;;;;;5035902;28;20142;-87
2023/07/03 09:40:43;;;;;;;7.20;0.70;;;18.90;99.70;;;;;;5071281;28;20055;-87
2023/07/03 09:43:33;;;;;;;4.45;0.93;;;18.90;99.70;;;;;;5071301;28;20101;-87
2023/07/03 09:46:09;;;;;;;8.38;1.33;;;18.90;99.70;;;;;;5067358;28;20141;-87
2023/07/03 09:48:36;;;;;;;6.65;0.70;;;18.80;99.70;;;;;;5072313;28;20036;-86
2023/07/03 09:51:06;;;;;;;4.63;1.00;;;18.80;99.90;;;;;;5051334;28;20230;-88
2023/07/03 09:53:37;;;;;;;5.32;2.20;;;18.80;99.90;;;;;;5067409;28;20178;-87
2023/07/03 09:56:03;;;;;;;2.60;0.65;;;18.80;99.90;;;;;;5068498;28;20045;-83
2023/07/03 09:58:29;;;;;;;3.90;0.65;;;18.70;99.90;;;;;;5065606;28;20055;-82
2023/07/03 10:01:00;;;;;;;2.50;0.43;;;18.70;99.90;;;;;;5067724;28;20060;-84
2023/07/03 10:03:31;;;;;;;6.82;0.70;;;18.60;99.90;;;;;;5066345;28;20040;-82
2023/07/03 10:06:17;;;;;;;6.25;0.77;;;18.50;99.90;;;;;;5051525;28;20106;-83
2023/07/03 10:08:49;;;;;;;7.28;1.33;;;18.50;99.90;;;;;;5068900;28;20056;-85
2023/07/03 10:11:28;;;;;;;2.08;0.52;;;18.40;99.90;;;;;;5067210;28;20067;-85
2023/07/03 10:13:55;;;;;;;2.58;0.57;;;18.30;99.90;;;;;;5065252;28;20039;-86
2023/07/03 10:16:23;;;;;;;1.83;0.40;;;18.10;99.90;;;;;;5088925;28;20036;-87
2023/07/03 10:18:55;;;;;;;4.18;0.85;;;18.10;99.90;;;;;;5075490;28;20103;-85
2023/07/03 10:21:22;;;;;;;8.90;0.90;;;17.80;99.90;;;;;;5088725;28;20052;-85
2023/07/03 10:23:49;;;;;;;1.80;0.50;;;18.00;99.90;;;;;;5068152;28;20396;-85
2023/07/03 10:26:34;;;;;;;4.95;0.80;;;17.90;99.90;;;;;;5051478;28;20048;-84
2023/07/03 10:29:21;;;;;;;5.57;1.38;;;17.80;99.90;;;;;;5048179;28;20403;-86
2023/07/03 10:31:59;;;;;;;1.00;0.28;;;17.70;99.90;;;;;;5050466;28;20403;-84
2023/07/03 10:34:44;;;;;;;2.53;0.43;;;17.60;99.90;;;;;;5050164;28;20051;-84
2023/07/03 10:37:12;;;;;;;2.53;0.40;;;17.60;99.90;;;;;;5063959;28;20373;-85
2023/07/03 10:39:51;;;;;;;3.03;0.68;;;17.70;99.90;;;;;;5068271;28;20047;-85
2023/07/03 10:42:51;;;;;;;3.45;1.17;;;17.80;99.90;;;;;;5066092;28;20040;-85
2023/07/03 10:45:17;;;;;;;4.47;0.70;;;17.90;99.90;;;;;;5031299;28;20057;-84
2023/07/03 10:47:52;;;;;;;3.63;0.63;;;17.90;99.90;;;;;;5051215;28;20133;-86
2023/07/03 10:50:22;;;;;;;2.22;0.50;;;17.90;99.90;;;;;;5047545;28;20047;-87
2023/07/03 10:53:11;;;;;;;2.60;0.60;;;17.80;99.90;;;;;;5050796;28;20422;-86
2023/07/03 10:55:36;;;;;;;3.33;0.40;;;17.80;99.90;;;;;;5012855;28;20052;-86
2023/07/03 10:58:21;;;;;;;3.90;0.77;;;17.70;99.90;;;;;;5064710;28;20045;-85
2023/07/03 11:01:03;;;;;;;4.45;0.40;;;17.60;99.90;;;;;;5050111;28;20099;-84
2023/07/03 11:04:04;;;;;;;4.47;0.68;;;17.40;99.90;;;;;;5064337;28;20143;-84
2023/07/03 11:06:54;;;;;;;2.88;0.60;;;17.30;99.90;;;;;;5065664;28;20051;-86
2023/07/03 11:09:48;;;;;;;2.47;0.60;;;17.40;99.90;;;;;;5067059;28;20064;-84
2023/07/03 11:12:51;;;;;;;4.32;0.88;;;17.60;99.90;;;;;;5065611;28;20048;-86
2023/07/03 11:15:38;;;;;;;4.32;0.60;;;17.90;99.90;;;;;;5014067;28;20143;-84
2023/07/03 11:18:48;;;;;;;5.40;0.80;;;18.10;99.90;;;;;;5067355;28;20131;-86
2023/07/03 11:21:29;;;;;;;5.88;0.60;;;18.30;99.90;;;;;;5066660;28;20056;-85
2023/07/03 11:24:00;;;;;;;4.80;0.65;;;18.50;99.90;;;;;;5064500;28;20127;-86
2023/07/03 11:26:37;;;;;;;9.70;1.02;;;18.80;99.90;;;;;;5068199;28;20041;-84
2023/07/03 11:29:05;;;;;;;7.63;0.70;;;19.30;99.90;;;;;;5065759;28;20411;-85
2023/07/03 11:31:32;;;;;;;4.18;0.68;;;19.80;99.90;;;;;;5049686;28;20045;-85
2023/07/03 11:33:58;;;;;;;6.32;0.93;;;20.00;99.90;;;;;;5066052;28;20044;-85
2023/07/03 11:36:38;;;;;;;1.92;0.50;;;20.10;99.90;;;;;;5048769;28;20387;-86
2023/07/03 11:39:28;;;;;;;3.47;0.40;;;20.00;99.90;;;;;;5067548;28;20047;-86
2023/07/03 11:42:00;;;;;;;2.88;1.05;;;19.70;98.00;;;;;;5076646;28;20064;-87
2023/07/03 11:44:37;;;;;;;6.80;0.87;;;19.50;99.30;;;;;;5085123;28;20123;-87
2023/07/03 11:47:06;;;;;;;10.10;0.60;;;19.30;99.10;;;;;;5090939;28;20036;-85
2023/07/03 11:49:37;;;;;;;5.00;0.68;;;19.20;98.70;;;;;;5074218;28;20033;-88
2023/07/03 11:52:06;;;;;;;3.58;0.50;;;19.10;99.00;;;;;;5070170;28;20041;-86
2023/07/03 11:54:35;;;;;;;6.85;1.23;;;19.00;99.00;;;;;;5068996;28;20167;-86
2023/07/03 11:57:07;;;;;;;3.17;0.70;;;18.80;98.90;;;;;;5054172;28;20487;-86
2023/07/03 11:59:41;;;;;;;2.53;0.68;;;18.70;98.80;;;;;;5052349;28;20048;-86
2023/07/03 12:02:10;;;;;;;3.25;0.40;;;18.70;98.60;;;;;;5067887;28;20048;-84
2023/07/03 12:04:45;;;;;;;1.90;0.45;;;18.80;98.80;;;;;;5070249;28;20472;-86
2023/07/03 12:07:17;;;;;;;5.03;0.60;;;19.30;98.60;;;;;;5050433;28;20047;-87
2023/07/03 12:09:42;;;;;;;3.47;0.73;;;19.90;98.50;;;;;;5069952;28;20140;-88
2023/07/03 12:12:24;;;;;;;1.83;0.70;;;20.20;97.70;;;;;;5051402;28;20080;-86
2023/07/03 12:14:54;;;;;;;3.80;0.55;;;20.30;97.30;;;;;;5053176;28;20052;-87
2023/07/03 12:17:23;;;;;;;2.08;0.50;;;20.20;96.90;;;;;;5053330;28;20036;-86
2023/07/03 12:19:53;;;;;;;3.20;0.60;;;20.00;96.20;;;;;;5067223;28;20055;-85
2023/07/03 12:22:25;;;;;;;2.42;0.55;;;19.70;96.20;;;;;;5053256;28;20044;-86
2023/07/03 12:25:09;;;;;;;3.60;0.98;;;18.40;95.90;;;;;;5052153;28;20074;-85
2023/07/03 12:27:37;;;;;;;1.95;0.50;;;19.40;96.10;;;;;;5068816;28;20048;-86
2023/07/03 12:30:03;;;;;;;6.07;0.88;;;19.30;96.30;;;;;;5036164;28;20071;-86
2023/07/03 12:32:31;;;;;;;2.78;0.50;;;19.30;96.30;;;;;;5049790;28;20062;-85
2023/07/03 12:35:18;;;;;;;1.38;0.50;;;19.20;96.30;;;;;;5069008;28;20513;-86
2023/07/03 12:37:58;;;;;;;0.60;0.30;;;19.00;95.80;;;;;;5050818;28;20071;-86
2023/07/03 12:40:24;;;;;;;1.98;0.50;;;19.00;96.00;;;;;;5068208;28;20048;-86
2023/07/03 12:42:55;;;;;;;3.35;0.63;;;18.80;96.30;;;;;;5035512;28;20412;-85
2023/07/03 12:45:29;;;;;;;1.52;0.47;;;18.80;96.20;;;;;;5050406;28;20044;-85
2023/07/03 12:48:22;;;;;;;6.00;0.95;;;18.70;95.70;;;;;;5052105;28;20052;-85
2023/07/03 12:50:49;;;;;;;2.45;0.60;;;18.60;95.70;;;;;;5046816;28;20495;-88
2023/07/03 12:53:15;;;;;;;4.97;0.65;;;18.60;96.20;;;;;;5051174;28;20090;-87
2023/07/03 12:55:44;;;;;;;6.93;1.35;;;18.50;96.40;;;;;;5052281;28;20051;-87
2023/07/03 12:58:11;;;;;;;7.07;0.57;;;18.50;96.50;;;;;;5050300;28;20052;-87
2023/07/03 13:00:37;;;;;;;3.80;0.82;;;18.60;96.70;;;;;;5035244;28;20044;-87